createdAt,value
2019-04-01T00:01:32.744Z,7.70
2019-04-01T00:04:00.200Z,7.70
2019-04-01T00:06:27.674Z,7.60
2019-04-01T00:08:55.113Z,7.60
2019-04-01T00:11:22.610Z,7.50
2019-04-01T00:13:50.052Z,7.50
2019-04-01T00:16:17.500Z,7.40
2019-04-01T00:18:45.011Z,7.40
2019-04-01T00:21:12.466Z,7.40
2019-04-01T00:23:39.908Z,7.30
2019-04-01T00:26:07.387Z,7.20
2019-04-01T00:28:34.889Z,7.30
2019-04-01T00:31:02.321Z,7.30
2019-04-01T00:33:29.991Z,7.30
2019-04-01T00:35:57.460Z,7.30
2019-04-01T00:38:24.938Z,7.30
2019-04-01T00:40:52.615Z,7.20
2019-04-01T00:43:42.073Z,7.20
2019-04-01T00:46:11.087Z,7.20
2019-04-01T00:48:38.538Z,7.20
2019-04-01T00:51:05.984Z,7.20
2019-04-01T00:53:33.445Z,7.10
2019-04-01T00:56:00.922Z,7.10
2019-04-01T00:58:30.512Z,7.10
2019-04-01T01:00:57.720Z,7.10
2019-04-01T01:03:25.122Z,7.10
2019-04-01T01:05:52.623Z,7.10
2019-04-01T01:08:20.069Z,7.10
2019-04-01T01:10:47.579Z,7.00
2019-04-01T01:13:15.024Z,7.00
2019-04-01T01:15:42.477Z,7.00
2019-04-01T01:18:09.971Z,6.90
2019-04-01T01:20:37.423Z,7.00
2019-04-01T01:23:04.921Z,6.90
2019-04-01T01:25:32.388Z,6.90
2019-04-01T01:27:59.874Z,6.80
2019-04-01T01:30:27.362Z,6.80
2019-04-01T01:32:54.805Z,6.80
2019-04-01T01:35:22.301Z,6.70
2019-04-01T01:37:49.803Z,6.70
2019-04-01T01:40:17.320Z,6.70
2019-04-01T01:42:44.740Z,6.60
2019-04-01T01:45:12.621Z,6.60
2019-04-01T01:47:40.097Z,6.60
2019-04-01T01:50:07.544Z,6.50
2019-04-01T01:52:35.076Z,6.50
2019-04-01T01:55:02.587Z,6.50
2019-04-01T01:57:30.035Z,6.50
2019-04-01T01:59:57.510Z,6.50
2019-04-01T02:02:24.963Z,6.50
2019-04-01T02:04:52.627Z,6.50
2019-04-01T02:07:20.074Z,6.50
2019-04-01T02:09:47.522Z,6.50
2019-04-01T02:12:14.998Z,6.50
2019-04-01T02:14:42.453Z,6.50
2019-04-01T02:17:09.944Z,6.40
2019-04-01T02:19:37.410Z,6.40
2019-04-01T02:22:04.851Z,6.40
2019-04-01T02:24:32.333Z,6.40
2019-04-01T02:26:59.817Z,6.30
2019-04-01T02:29:27.285Z,6.30
2019-04-01T02:31:54.774Z,6.30
2019-04-01T02:34:22.221Z,6.30
2019-04-01T02:36:49.663Z,6.30
2019-04-01T02:39:17.142Z,6.30
2019-04-01T02:41:44.593Z,6.30
2019-04-01T02:44:12.075Z,6.30
2019-04-01T02:46:39.538Z,6.30
2019-04-01T02:49:07.051Z,6.20
2019-04-01T02:51:34.496Z,6.30
2019-04-01T02:54:01.947Z,6.20
2019-04-01T02:56:29.368Z,6.20
2019-04-01T02:58:56.873Z,6.20
2019-04-01T03:01:24.305Z,6.20
2019-04-01T03:03:51.748Z,6.20
2019-04-01T03:06:19.413Z,6.20
2019-04-01T03:08:46.855Z,6.10
2019-04-01T03:11:14.298Z,6.10
2019-04-01T03:13:41.790Z,6.00
2019-04-01T03:16:09.240Z,6.00
2019-04-01T03:18:36.698Z,5.90
2019-04-01T03:21:04.189Z,5.90
2019-04-01T03:23:31.648Z,5.90
2019-04-01T03:25:59.088Z,5.90
2019-04-01T03:28:26.606Z,5.80
2019-04-01T03:30:54.103Z,5.80
2019-04-01T03:33:21.550Z,5.80
2019-04-01T03:35:49.001Z,5.80
2019-04-01T03:38:16.477Z,5.80
2019-04-01T03:40:43.970Z,5.70
2019-04-01T03:43:11.468Z,5.60
2019-04-01T03:45:38.912Z,5.60
2019-04-01T03:48:06.716Z,5.60
2019-04-01T03:50:34.174Z,5.50
2019-04-01T03:53:01.661Z,5.50
2019-04-01T03:55:29.137Z,5.40
2019-04-01T03:57:56.634Z,5.30
2019-04-01T04:00:24.252Z,5.30
2019-04-01T04:02:52.019Z,5.20
2019-04-01T04:05:19.487Z,5.10
2019-04-01T04:07:47.024Z,5.10
2019-04-01T04:10:14.524Z,5.10
2019-04-01T04:12:42.018Z,5.00
2019-04-01T04:15:09.521Z,5.00
2019-04-01T04:17:37.004Z,5.00
2019-04-01T04:20:05.130Z,4.90
2019-04-01T04:22:32.762Z,4.90
2019-04-01T04:25:00.560Z,4.80
2019-04-01T04:27:28.094Z,4.80
2019-04-01T04:29:55.568Z,4.80
2019-04-01T04:32:23.115Z,4.80
2019-04-01T04:34:50.605Z,4.90
2019-04-01T04:37:18.094Z,4.90
2019-04-01T04:39:45.623Z,4.90
2019-04-01T04:42:13.107Z,4.90
2019-04-01T04:44:40.686Z,4.90
2019-04-01T04:47:08.237Z,5.00
2019-04-01T04:49:35.713Z,5.00
2019-04-01T04:52:04.702Z,5.00
2019-04-01T04:54:32.398Z,4.90
2019-04-01T04:56:59.875Z,4.80
2019-04-01T04:59:27.379Z,4.80
2019-04-01T05:01:54.951Z,4.80
2019-04-01T05:04:22.464Z,4.70
2019-04-01T05:06:49.934Z,4.70
2019-04-01T05:09:17.456Z,4.70
2019-04-01T05:11:45.013Z,4.70
2019-04-01T05:14:12.511Z,4.70
2019-04-01T05:16:39.982Z,4.70
2019-04-01T05:19:07.478Z,4.70
2019-04-01T05:21:35.632Z,4.70
2019-04-01T05:24:03.104Z,4.90
2019-04-01T05:26:32.678Z,5.00
2019-04-01T05:29:01.354Z,5.00
2019-04-01T05:31:31.642Z,5.00
2019-04-01T05:34:00.691Z,5.00
2019-04-01T05:36:28.531Z,5.00
2019-04-01T05:38:56.625Z,5.00
2019-04-01T05:41:24.166Z,5.00
2019-04-01T05:43:52.256Z,5.00
2019-04-01T05:46:19.895Z,5.00
2019-04-01T05:48:47.490Z,5.00
2019-04-01T05:51:39.426Z,5.10
2019-04-01T05:54:07.206Z,5.20
2019-04-01T05:56:34.679Z,5.30
2019-04-01T05:59:02.231Z,5.40
2019-04-01T06:01:42.104Z,5.50
2019-04-01T06:04:09.651Z,5.70
2019-04-01T06:06:37.444Z,5.80
2019-04-01T06:09:07.176Z,6.00
2019-04-01T06:11:35.130Z,6.40
2019-04-01T06:14:02.943Z,6.80
2019-04-01T06:16:30.485Z,7.30
2019-04-01T06:18:58.047Z,7.70
2019-04-01T06:21:25.559Z,8.10
2019-04-01T06:23:53.053Z,8.60
2019-04-01T06:26:20.662Z,9.10
2019-04-01T06:28:49.246Z,9.50
2019-04-01T06:31:16.736Z,9.70
2019-04-01T06:33:44.289Z,9.80
2019-04-01T06:36:11.754Z,9.80
2019-04-01T06:38:39.247Z,9.80
2019-04-01T06:41:06.816Z,9.60
2019-04-01T06:43:34.299Z,9.50
2019-04-01T06:46:01.797Z,9.40
2019-04-01T06:48:29.504Z,9.80
2019-04-01T06:50:56.960Z,9.80
2019-04-01T06:53:24.486Z,10.20
2019-04-01T06:55:52.128Z,10.60
2019-04-01T06:58:19.614Z,11.10
2019-04-01T07:00:47.130Z,11.70
2019-04-01T07:03:14.708Z,12.10
2019-04-01T07:05:42.254Z,12.50
2019-04-01T07:08:10.157Z,12.40
2019-04-01T07:10:37.681Z,12.70
2019-04-01T07:13:05.175Z,13.10
2019-04-01T07:15:32.698Z,13.40
2019-04-01T07:18:00.207Z,13.40
2019-04-01T07:20:27.665Z,13.70
2019-04-01T07:22:55.188Z,14.00
2019-04-01T07:25:22.708Z,14.60
2019-04-01T07:27:50.387Z,14.50
2019-04-01T07:30:17.969Z,14.70
2019-04-01T07:32:45.432Z,15.00
2019-04-01T07:35:13.044Z,15.00
2019-04-01T07:37:40.515Z,15.40
2019-04-01T07:40:08.120Z,16.10
2019-04-01T07:42:35.740Z,16.30
2019-04-01T07:45:04.632Z,16.80
2019-04-01T07:47:32.135Z,17.10
2019-04-01T07:49:59.654Z,17.10
2019-04-01T07:52:27.407Z,17.10
2019-04-01T07:54:54.895Z,17.00
2019-04-01T07:57:22.419Z,17.30
2019-04-01T07:59:49.903Z,17.90
2019-04-01T08:02:17.476Z,18.30
2019-04-01T08:04:45.002Z,18.60
2019-04-01T08:07:13.514Z,19.00
2019-04-01T08:09:41.188Z,19.40
2019-04-01T08:12:08.712Z,19.70
2019-04-01T08:14:36.228Z,19.00
2019-04-01T08:17:03.724Z,18.60
2019-04-01T08:19:31.400Z,18.80
2019-04-01T08:21:58.972Z,18.90
2019-04-01T08:24:26.453Z,19.20
2019-04-01T08:26:53.995Z,18.20
2019-04-01T08:29:30.149Z,18.00
2019-04-01T08:31:50.774Z,18.20
2019-04-01T08:34:18.256Z,18.10
2019-04-01T08:36:45.757Z,18.20
2019-04-01T08:39:13.992Z,18.10
2019-04-01T08:41:41.795Z,18.30
2019-04-01T08:44:09.319Z,18.00
2019-04-01T08:46:36.868Z,17.60
2019-04-01T08:49:07.682Z,17.80
2019-04-01T08:51:33.633Z,17.20
2019-04-01T08:54:01.166Z,17.30
2019-04-01T08:56:28.751Z,17.80
2019-04-01T08:58:56.237Z,18.10
2019-04-01T09:01:34.688Z,18.40
2019-04-01T09:03:55.304Z,18.20
2019-04-01T09:06:22.751Z,18.30
2019-04-01T09:08:52.059Z,18.40
2019-04-01T09:11:20.246Z,18.50
2019-04-01T09:13:47.866Z,18.00
2019-04-01T09:16:15.792Z,17.50
2019-04-01T09:18:43.329Z,16.90
2019-04-01T09:21:10.780Z,16.40
2019-04-01T09:23:38.234Z,16.20
2019-04-01T09:26:05.697Z,16.10
2019-04-01T09:28:33.807Z,15.90
2019-04-01T09:31:01.364Z,16.80
2019-04-01T09:33:28.844Z,16.90
2019-04-01T09:35:56.339Z,17.00
2019-04-01T09:38:25.708Z,17.50
2019-04-01T09:40:53.200Z,18.10
2019-04-01T09:43:20.686Z,18.20
2019-04-01T09:45:48.214Z,18.30
2019-04-01T09:48:15.732Z,18.60
2019-04-01T09:50:43.217Z,18.80
2019-04-01T09:53:10.804Z,19.40
2019-04-01T09:55:38.258Z,19.10
2019-04-01T09:58:05.888Z,18.60
2019-04-01T10:00:33.368Z,18.50
2019-04-01T10:03:00.861Z,18.90
2019-04-01T10:05:28.366Z,19.50
2019-04-01T10:07:55.859Z,19.70
2019-04-01T10:10:23.346Z,19.70
2019-04-01T10:12:50.821Z,19.90
2019-04-01T10:15:18.276Z,19.80
2019-04-01T10:17:45.828Z,19.70
2019-04-01T10:20:13.382Z,19.90
2019-04-01T10:22:40.893Z,19.40
2019-04-01T10:25:08.340Z,18.90
2019-04-01T10:27:35.797Z,18.50
2019-04-01T10:30:04.935Z,17.60
2019-04-01T10:32:32.431Z,17.50
2019-04-01T10:34:59.894Z,17.60
2019-04-01T10:37:27.342Z,17.70
2019-04-01T10:39:54.928Z,17.70
2019-04-01T10:42:22.529Z,18.50
2019-04-01T10:44:50.235Z,18.60
2019-04-01T10:47:17.759Z,18.30
2019-04-01T10:49:45.216Z,18.10
2019-04-01T10:52:12.885Z,18.90
2019-04-01T10:54:40.397Z,19.40
2019-04-01T10:57:07.815Z,19.50
2019-04-01T10:59:35.373Z,19.70
2019-04-01T11:02:02.841Z,19.30
2019-04-01T11:04:30.375Z,18.50
2019-04-01T11:06:57.968Z,18.50
2019-04-01T11:09:37.746Z,18.80
2019-04-01T11:11:55.821Z,19.00
2019-04-01T11:14:23.386Z,19.70
2019-04-01T11:16:50.832Z,19.90
2019-04-01T11:19:18.321Z,19.30
2019-04-01T11:21:45.804Z,19.20
2019-04-01T11:24:13.306Z,19.60
2019-04-01T11:26:40.753Z,19.20
2019-04-01T11:29:08.356Z,19.80
2019-04-01T11:31:35.804Z,20.10
2019-04-01T11:34:03.328Z,20.00
2019-04-01T11:36:30.824Z,20.20
2019-04-01T11:38:58.277Z,20.30
2019-04-01T11:41:25.794Z,19.90
2019-04-01T11:43:53.428Z,20.10
2019-04-01T11:46:20.913Z,20.20
2019-04-01T11:48:48.371Z,20.30
2019-04-01T11:51:15.857Z,20.40
2019-04-01T11:53:43.286Z,20.70
2019-04-01T11:56:10.952Z,20.70
2019-04-01T11:58:39.063Z,20.20
2019-04-01T12:01:06.544Z,20.20
2019-04-01T12:03:33.992Z,20.10
2019-04-01T12:06:01.530Z,19.70
2019-04-01T12:08:30.521Z,19.80
2019-04-01T12:10:58.062Z,19.10
2019-04-01T12:13:25.560Z,19.40
2019-04-01T12:15:53.032Z,19.80
2019-04-01T12:18:20.498Z,19.90
2019-04-01T12:20:48.007Z,20.30
2019-04-01T12:23:15.447Z,20.20
2019-04-01T12:25:42.972Z,20.30
2019-04-01T12:28:10.438Z,20.20
2019-04-01T12:30:37.905Z,20.70
2019-04-01T12:33:05.513Z,20.80
2019-04-01T12:35:33.352Z,20.30
2019-04-01T12:38:00.835Z,19.80
2019-04-01T12:40:28.436Z,19.80
2019-04-01T12:42:55.941Z,19.30
2019-04-01T12:45:23.593Z,19.20
2019-04-01T12:47:51.054Z,19.50
2019-04-01T12:50:18.499Z,19.70
2019-04-01T12:52:46.304Z,19.40
2019-04-01T12:55:14.563Z,19.60
2019-04-01T12:57:42.261Z,19.10
2019-04-01T13:00:11.157Z,19.20
2019-04-01T13:02:38.628Z,19.20
2019-04-01T13:05:06.457Z,19.90
2019-04-01T13:07:33.966Z,20.00
2019-04-01T13:10:01.414Z,20.00
2019-04-01T13:12:28.891Z,20.50
2019-04-01T13:14:56.427Z,20.10
2019-04-01T13:17:23.948Z,20.50
2019-04-01T13:19:51.427Z,20.00
2019-04-01T13:22:18.886Z,20.10
2019-04-01T13:24:46.373Z,20.30
2019-04-01T13:27:13.875Z,20.40
2019-04-01T13:29:41.373Z,20.60
2019-04-01T13:32:08.841Z,20.30
2019-04-01T13:34:36.310Z,20.00
2019-04-01T13:37:03.761Z,20.10
2019-04-01T13:39:31.255Z,19.60
2019-04-01T13:41:58.713Z,19.20
2019-04-01T13:44:36.933Z,19.10
2019-04-01T13:46:56.025Z,18.40
2019-04-01T13:49:23.580Z,18.70
2019-04-01T13:51:51.092Z,19.10
2019-04-01T13:54:18.561Z,19.40
2019-04-01T13:56:46.102Z,19.60
2019-04-01T13:59:13.566Z,19.10
2019-04-01T14:01:41.067Z,19.10
2019-04-01T14:04:08.574Z,19.00
2019-04-01T14:06:36.068Z,18.50
2019-04-01T14:09:05.664Z,18.30
2019-04-01T14:11:34.733Z,18.10
2019-04-01T14:14:02.287Z,18.10
2019-04-01T14:16:29.792Z,18.20
2019-04-01T14:18:57.238Z,18.40
2019-04-01T14:21:24.750Z,18.90
2019-04-01T14:23:52.219Z,19.20
2019-04-01T14:26:19.676Z,19.50
2019-04-01T14:28:47.193Z,19.60
2019-04-01T14:31:14.659Z,19.50
2019-04-01T14:33:42.323Z,18.70
2019-04-01T14:36:09.802Z,18.30
2019-04-01T14:38:37.295Z,18.40
2019-04-01T14:41:04.792Z,18.60
2019-04-01T14:43:32.255Z,18.40
2019-04-01T14:45:59.765Z,18.10
2019-04-01T14:48:27.225Z,18.10
2019-04-01T14:50:54.712Z,18.10
2019-04-01T14:53:24.369Z,17.90
2019-04-01T14:55:51.840Z,18.20
2019-04-01T14:58:19.310Z,17.90
2019-04-01T15:00:46.838Z,18.40
2019-04-01T15:03:14.339Z,18.50
2019-04-01T15:05:41.818Z,18.50
2019-04-01T15:08:09.339Z,18.40
2019-04-01T15:10:36.797Z,18.50
2019-04-01T15:13:05.993Z,18.60
2019-04-01T15:15:33.564Z,18.40
2019-04-01T15:18:01.042Z,18.70
2019-04-01T15:20:28.502Z,18.80
2019-04-01T15:22:56.015Z,18.90
2019-04-01T15:25:23.478Z,19.10
2019-04-01T15:27:50.975Z,19.30
2019-04-01T15:30:18.464Z,19.40
2019-04-01T15:32:46.006Z,19.40
2019-04-01T15:35:13.497Z,19.20
2019-04-01T15:37:40.960Z,18.80
2019-04-01T15:40:08.867Z,18.60
2019-04-01T15:42:36.339Z,18.40
2019-04-01T15:45:04.223Z,18.40
2019-04-01T15:47:31.706Z,18.50
2019-04-01T15:49:59.230Z,18.50
2019-04-01T15:52:26.809Z,18.50
2019-04-01T15:54:57.670Z,18.50
2019-04-01T15:57:23.587Z,18.30
2019-04-01T15:59:51.257Z,18.30
2019-04-01T16:02:18.885Z,18.30
2019-04-01T16:04:46.344Z,18.20
2019-04-01T16:07:13.846Z,18.20
2019-04-01T16:09:41.397Z,18.20
2019-04-01T16:12:09.216Z,18.20
2019-04-01T16:14:40.278Z,18.10
2019-04-01T16:17:08.123Z,17.90
2019-04-01T16:19:35.599Z,16.30
2019-04-01T16:22:03.199Z,17.80
2019-04-01T16:24:30.716Z,17.70
2019-04-01T16:26:58.207Z,17.60
2019-04-01T16:29:25.667Z,17.60
2019-04-01T16:31:55.365Z,17.40
2019-04-01T16:34:22.498Z,17.40
2019-04-01T16:36:50.126Z,17.30
2019-04-01T16:39:17.619Z,17.20
2019-04-01T16:41:46.699Z,17.20
2019-04-01T16:44:15.144Z,17.10
2019-04-01T16:46:42.892Z,16.90
2019-04-01T16:49:10.426Z,16.80
2019-04-01T16:51:41.197Z,16.70
2019-04-01T16:54:07.577Z,16.60
2019-04-01T16:56:35.089Z,16.40
2019-04-01T16:59:02.562Z,16.20
2019-04-01T17:01:30.092Z,16.10
2019-04-01T17:03:57.873Z,15.90
2019-04-01T17:06:25.388Z,15.80
2019-04-01T17:08:52.936Z,15.60
2019-04-01T17:11:20.436Z,15.40
2019-04-01T17:13:47.956Z,15.20
2019-04-01T17:16:15.508Z,15.00
2019-04-01T17:18:43.075Z,14.70
2019-04-01T17:21:10.571Z,14.60
2019-04-01T17:23:38.086Z,14.40
2019-04-01T17:26:05.598Z,14.30
2019-04-01T17:28:33.104Z,14.10
2019-04-01T17:31:00.692Z,14.00
2019-04-01T17:33:28.179Z,13.80
2019-04-01T17:35:55.636Z,13.70
2019-04-01T17:38:23.119Z,13.60
2019-04-01T17:40:50.587Z,13.50
2019-04-01T17:43:18.134Z,13.40
2019-04-01T17:45:45.654Z,13.30
2019-04-01T17:48:13.145Z,13.20
2019-04-01T17:50:40.670Z,13.00
2019-04-01T17:53:09.665Z,12.90
2019-04-01T17:55:37.410Z,12.80
2019-04-01T17:58:06.263Z,12.70
2019-04-01T18:00:35.326Z,12.60
2019-04-01T18:03:02.997Z,12.60
2019-04-01T18:05:30.548Z,12.40
2019-04-01T18:07:58.103Z,12.40
2019-04-01T18:10:25.634Z,12.30
2019-04-01T18:12:53.132Z,12.10
2019-04-01T18:15:20.832Z,12.00
2019-04-01T18:17:48.275Z,12.00
2019-04-01T18:20:15.821Z,11.80
2019-04-01T18:22:43.321Z,11.80
2019-04-01T18:25:11.946Z,11.70
2019-04-01T18:27:39.466Z,11.60
2019-04-01T18:30:07.472Z,11.50
2019-04-01T18:32:35.011Z,11.40
2019-04-01T18:35:04.131Z,11.30
2019-04-01T18:37:31.862Z,11.30
2019-04-01T18:39:59.385Z,11.20
2019-04-01T18:42:27.007Z,11.10
2019-04-01T18:44:54.669Z,11.10
2019-04-01T18:47:22.247Z,10.90
2019-04-01T18:49:49.680Z,10.90
2019-04-01T18:52:17.168Z,10.80
2019-04-01T18:54:44.666Z,10.80
2019-04-01T18:57:12.137Z,10.80
2019-04-01T18:59:39.705Z,10.70
2019-04-01T19:02:07.190Z,10.60
2019-04-01T19:04:34.718Z,10.60
2019-04-01T19:07:04.200Z,10.60
2019-04-01T19:09:32.651Z,10.50
2019-04-01T19:12:04.319Z,10.50
2019-04-01T19:14:29.666Z,10.40
2019-04-01T19:16:57.194Z,10.40
2019-04-01T19:19:24.704Z,10.40
2019-04-01T19:21:52.233Z,10.30
2019-04-01T19:24:19.754Z,10.30
2019-04-01T19:26:47.224Z,10.20
2019-04-01T19:29:16.043Z,10.20
2019-04-01T19:31:43.710Z,10.20
2019-04-01T19:34:11.187Z,10.10
2019-04-01T19:36:38.743Z,10.10
2019-04-01T19:39:06.590Z,10.00
2019-04-01T19:41:34.100Z,10.00
2019-04-01T19:44:01.654Z,10.00
2019-04-01T19:46:29.181Z,9.90
2019-04-01T19:48:56.674Z,9.90
2019-04-01T19:51:24.226Z,9.80
2019-04-01T19:53:52.396Z,9.80
2019-04-01T19:56:20.800Z,9.70
2019-04-01T19:58:48.274Z,9.70
2019-04-01T20:01:15.783Z,9.70
2019-04-01T20:03:43.359Z,9.60
2019-04-01T20:06:10.845Z,9.60
2019-04-01T20:08:38.319Z,9.50
2019-04-01T20:11:05.888Z,9.50
2019-04-01T20:13:33.389Z,9.40
2019-04-01T20:16:00.902Z,9.40
2019-04-01T20:18:28.456Z,9.40
2019-04-01T20:20:56.299Z,9.40
2019-04-01T20:23:23.864Z,9.40
2019-04-01T20:25:51.409Z,9.30
2019-04-01T20:28:18.931Z,9.30
2019-04-01T20:30:46.538Z,9.20
2019-04-01T20:33:17.886Z,9.20
2019-04-01T20:35:43.337Z,9.20
2019-04-01T20:38:10.909Z,9.10
2019-04-01T20:40:38.382Z,9.00
2019-04-01T20:43:05.867Z,9.00
2019-04-01T20:45:33.403Z,8.80
2019-04-01T20:48:01.013Z,8.70
2019-04-01T20:50:28.489Z,8.70
2019-04-01T20:52:56.008Z,8.60
2019-04-01T20:55:23.538Z,8.50
2019-04-01T20:57:51.054Z,8.40
2019-04-01T21:00:19.464Z,8.30
2019-04-01T21:02:46.917Z,8.20
2019-04-01T21:05:14.659Z,8.10
2019-04-01T21:07:42.143Z,8.10
2019-04-01T21:10:09.719Z,8.00
2019-04-01T21:12:37.731Z,8.00
2019-04-01T21:15:05.506Z,7.90
2019-04-01T21:17:33.102Z,7.80
2019-04-01T21:20:00.614Z,7.80
2019-04-01T21:22:28.098Z,7.70
2019-04-01T21:24:55.627Z,7.60
2019-04-01T21:27:23.191Z,7.60
2019-04-01T21:29:51.522Z,7.60
2019-04-01T21:32:18.992Z,7.40
2019-04-01T21:34:46.701Z,7.40
2019-04-01T21:37:14.186Z,7.40
2019-04-01T21:39:41.724Z,7.40
2019-04-01T21:42:09.216Z,7.30
2019-04-01T21:44:36.743Z,7.30
2019-04-01T21:47:04.225Z,7.30
2019-04-01T21:49:31.781Z,7.30
2019-04-01T21:52:01.942Z,7.20
2019-04-01T21:54:28.561Z,7.10
2019-04-01T21:56:56.043Z,7.10
2019-04-01T21:59:23.541Z,7.00
2019-04-01T22:01:51.054Z,6.90
2019-04-01T22:04:18.562Z,6.90
2019-04-01T22:06:46.050Z,6.90
2019-04-01T22:09:13.534Z,6.80
2019-04-01T22:11:41.017Z,6.70
2019-04-01T22:14:08.528Z,6.70
2019-04-01T22:16:36.079Z,6.70
2019-04-01T22:19:03.883Z,6.70
2019-04-01T22:21:31.421Z,6.60
2019-04-01T22:23:58.928Z,6.60
2019-04-01T22:26:27.152Z,6.50
2019-04-01T22:28:55.544Z,6.40
2019-04-01T22:31:23.022Z,6.40
2019-04-01T22:33:50.526Z,6.20
2019-04-01T22:36:18.037Z,6.20
2019-04-01T22:38:45.496Z,6.20
2019-04-01T22:41:13.005Z,6.20
2019-04-01T22:43:40.466Z,6.20
2019-04-01T22:46:07.972Z,6.20
2019-04-01T22:48:35.432Z,6.30
2019-04-01T22:51:02.932Z,6.10
2019-04-01T22:53:30.547Z,6.10
2019-04-01T22:55:58.026Z,6.10
2019-04-01T22:58:25.505Z,6.10
2019-04-01T23:00:52.977Z,6.10
2019-04-01T23:03:20.464Z,6.10
2019-04-01T23:05:48.071Z,6.00
2019-04-01T23:08:15.589Z,5.90
2019-04-01T23:10:43.049Z,5.80
2019-04-01T23:13:10.573Z,5.80
2019-04-01T23:15:38.051Z,5.70
2019-04-01T23:18:06.257Z,5.60
2019-04-01T23:20:34.762Z,5.60
2019-04-01T23:23:02.239Z,5.50
2019-04-01T23:25:29.728Z,5.80
2019-04-01T23:27:57.218Z,5.40
2019-04-01T23:30:24.703Z,5.40
2019-04-01T23:32:52.204Z,5.40
2019-04-01T23:35:19.659Z,5.40
2019-04-01T23:37:47.124Z,5.40
2019-04-01T23:40:14.829Z,5.40
2019-04-01T23:42:42.303Z,5.30
2019-04-01T23:45:10.133Z,5.60
2019-04-01T23:47:37.653Z,5.20
2019-04-01T23:50:05.984Z,5.20
2019-04-01T23:52:34.018Z,5.20
2019-04-01T23:55:01.575Z,5.10
2019-04-01T23:57:29.063Z,5.10
2019-04-01T23:59:56.783Z,5.10
